Time;durP1;ratioP1;P1;durP2;ratioP2;P2;SDS_P1;SDS_P2;PMS_P1;PMS_P2;Temp;Humidity;BMP_temperature;BMP_pressure;BME280_temperature;BME280_humidity;BME280_pressure;Samples;Min_cycle;Max_cycle;Signal;HPM_P1;HPM_P2
2022/07/22 00:01:45;;;;;;;12.73;2.22;;;44.40;26.50;;;;;;5044724;28;20036;-66
2022/07/22 00:04:11;;;;;;;13.05;2.28;;;44.50;26.30;;;;;;5043184;28;20028;-65
2022/07/22 00:06:38;;;;;;;15.10;2.60;;;44.30;26.50;;;;;;5042852;28;20032;-67
2022/07/22 00:09:04;;;;;;;10.38;2.47;;;44.30;27.10;;;;;;5040426;28;20025;-67
2022/07/22 00:11:31;;;;;;;9.07;1.92;;;44.30;26.60;;;;;;5058326;28;20032;-68
2022/07/22 00:13:57;;;;;;;11.20;2.17;;;44.30;26.50;;;;;;5042265;28;20025;-66
2022/07/22 00:16:24;;;;;;;11.32;2.75;;;44.30;26.90;;;;;;5041799;28;20025;-65
2022/07/22 00:18:50;;;;;;;10.63;2.30;;;44.20;27.00;;;;;;5042324;28;20029;-67
2022/07/22 00:21:17;;;;;;;11.90;2.50;;;44.20;26.90;;;;;;5042703;28;20036;-64
2022/07/22 00:23:43;;;;;;;9.15;2.25;;;44.00;26.60;;;;;;5045929;28;20021;-67
2022/07/22 00:26:10;;;;;;;15.25;2.00;;;44.10;26.40;;;;;;5063929;28;20028;-66
2022/07/22 00:28:37;;;;;;;11.02;2.33;;;44.10;26.30;;;;;;5043602;28;20035;-67
2022/07/22 00:31:03;;;;;;;6.63;2.25;;;44.10;26.20;;;;;;5042852;28;20039;-77
2022/07/22 00:33:32;;;;;;;13.23;2.10;;;44.10;26.50;;;;;;5046095;28;20045;-73
2022/07/22 00:35:59;;;;;;;11.23;2.20;;;44.00;26.60;;;;;;5046588;28;20043;-70
2022/07/22 00:38:25;;;;;;;7.45;2.03;;;44.00;26.40;;;;;;5044613;28;20536;-70
2022/07/22 00:40:51;;;;;;;16.23;2.38;;;43.90;26.00;;;;;;5042240;28;20026;-69
2022/07/22 00:43:18;;;;;;;10.60;2.33;;;43.90;26.00;;;;;;5040078;28;20025;-70
2022/07/22 00:45:44;;;;;;;10.25;2.88;;;43.90;25.80;;;;;;5045764;28;20038;-69
2022/07/22 00:48:11;;;;;;;14.90;2.42;;;43.70;26.10;;;;;;5045024;28;20031;-69
2022/07/22 00:50:37;;;;;;;8.07;2.30;;;43.80;26.00;;;;;;5060548;28;20390;-62
2022/07/22 00:53:04;;;;;;;14.02;2.25;;;43.70;26.40;;;;;;5065645;28;20095;-70
2022/07/22 00:55:32;;;;;;;14.85;2.25;;;43.80;25.60;;;;;;5063417;28;20031;-64
2022/07/22 00:57:59;;;;;;;9.02;2.17;;;43.80;25.80;;;;;;5063569;28;20060;-68
2022/07/22 01:00:26;;;;;;;12.70;2.28;;;43.70;25.60;;;;;;5065303;28;20035;-65
2022/07/22 01:02:52;;;;;;;9.68;2.58;;;43.70;25.20;;;;;;5064820;28;20058;-67
2022/07/22 01:05:19;;;;;;;23.50;4.47;;;43.60;25.20;;;;;;5064097;28;20035;-66
2022/07/22 01:07:46;;;;;;;12.73;2.60;;;43.60;24.80;;;;;;5043612;28;20024;-67
2022/07/22 01:10:14;;;;;;;11.05;2.50;;;43.50;25.00;;;;;;5066350;28;20047;-68
2022/07/22 01:12:40;;;;;;;8.63;2.35;;;43.50;24.80;;;;;;5048127;28;20029;-65
2022/07/22 01:15:07;;;;;;;14.27;2.65;;;43.40;24.40;;;;;;5042124;28;20477;-66
2022/07/22 01:17:34;;;;;;;13.32;2.60;;;43.40;24.10;;;;;;5049382;28;20024;-67
2022/07/22 01:20:08;;;;;;;19.00;2.95;;;43.40;23.60;;;;;;5045439;28;20069;-67
2022/07/22 01:22:34;;;;;;;18.83;3.20;;;43.20;22.90;;;;;;5045049;28;20044;-66
2022/07/22 01:25:01;;;;;;;23.23;3.25;;;43.20;22.00;;;;;;5029763;28;20522;-65
2022/07/22 01:27:29;;;;;;;26.92;3.33;;;43.10;21.70;;;;;;5031481;28;20469;-66
2022/07/22 01:29:56;;;;;;;21.63;3.42;;;43.10;21.80;;;;;;5047784;28;20487;-65
2022/07/22 01:32:22;;;;;;;23.25;3.10;;;43.00;21.70;;;;;;5044640;28;20504;-68
2022/07/22 01:34:48;;;;;;;12.45;2.85;;;42.90;21.50;;;;;;5046847;28;20045;-67
2022/07/22 01:37:15;;;;;;;18.50;3.10;;;42.90;21.60;;;;;;5043986;28;20514;-68
2022/07/22 01:39:41;;;;;;;16.17;2.75;;;42.70;21.50;;;;;;5029528;28;20045;-66
2022/07/22 01:42:08;;;;;;;15.05;3.08;;;42.60;21.80;;;;;;5043072;28;20478;-67
2022/07/22 01:44:34;;;;;;;17.73;3.22;;;42.60;22.00;;;;;;5042792;28;20457;-66
2022/07/22 01:47:00;;;;;;;22.73;3.13;;;42.60;21.70;;;;;;5033526;28;20176;-66
2022/07/22 01:49:27;;;;;;;17.42;3.15;;;42.50;21.60;;;;;;5063752;28;20504;-65
2022/07/22 01:51:53;;;;;;;16.85;2.97;;;42.50;21.60;;;;;;5048190;28;20066;-67
2022/07/22 01:54:20;;;;;;;31.13;3.00;;;42.60;21.70;;;;;;5067637;28;20125;-67
2022/07/22 01:56:46;;;;;;;15.30;2.95;;;42.50;21.70;;;;;;5065750;28;20042;-64
2022/07/22 01:59:12;;;;;;;17.75;2.90;;;42.50;21.70;;;;;;5047063;28;20317;-65
2022/07/22 02:01:39;;;;;;;15.50;3.05;;;42.30;21.70;;;;;;5047289;28;20092;-64
2022/07/22 02:04:05;;;;;;;13.07;2.67;;;42.20;21.60;;;;;;5043407;28;20057;-66
2022/07/22 02:06:32;;;;;;;17.63;2.70;;;42.20;21.80;;;;;;5049599;28;20506;-64
2022/07/22 02:08:58;;;;;;;12.00;2.65;;;42.10;22.00;;;;;;5032050;28;20047;-65
2022/07/22 02:11:25;;;;;;;16.05;2.80;;;42.00;22.50;;;;;;5048425;28;20049;-66
2022/07/22 02:13:51;;;;;;;12.18;2.40;;;41.80;22.20;;;;;;5066344;28;20071;-66
2022/07/22 02:16:17;;;;;;;12.32;2.53;;;41.80;22.20;;;;;;5048756;28;20136;-65
2022/07/22 02:18:44;;;;;;;15.05;3.20;;;41.70;22.20;;;;;;5047265;28;20061;-65
2022/07/22 02:21:10;;;;;;;19.58;3.17;;;41.50;22.40;;;;;;5068016;28;20531;-65
2022/07/22 02:23:37;;;;;;;11.15;2.92;;;41.40;22.60;;;;;;5051277;28;20052;-65
2022/07/22 02:26:03;;;;;;;24.75;3.53;;;41.30;22.70;;;;;;5067140;28;20601;-66
2022/07/22 02:28:30;;;;;;;21.50;3.42;;;41.20;22.80;;;;;;5065306;28;20481;-64
2022/07/22 02:30:56;;;;;;;25.88;3.00;;;41.00;22.50;;;;;;5065436;28;20052;-65
2022/07/22 02:33:23;;;;;;;15.93;2.80;;;40.90;22.70;;;;;;5033802;28;20063;-66
2022/07/22 02:35:49;;;;;;;10.25;2.65;;;40.90;22.70;;;;;;5066438;28;20426;-65
2022/07/22 02:38:15;;;;;;;22.67;3.88;;;40.70;22.70;;;;;;5065248;28;20070;-66
2022/07/22 02:40:42;;;;;;;24.08;2.75;;;40.70;23.00;;;;;;5050641;28;20497;-66
2022/07/22 02:43:08;;;;;;;15.00;2.97;;;40.60;22.90;;;;;;5059901;28;20053;-66
2022/07/22 02:45:35;;;;;;;18.90;2.70;;;40.40;23.00;;;;;;5060216;28;20064;-66
2022/07/22 02:48:01;;;;;;;15.00;3.00;;;40.40;23.00;;;;;;5050527;28;20409;-67
2022/07/22 02:50:27;;;;;;;16.27;2.85;;;40.40;23.10;;;;;;5047286;28;20058;-67
2022/07/22 02:52:54;;;;;;;17.98;2.95;;;40.30;23.20;;;;;;5067202;28;20505;-66
2022/07/22 02:55:20;;;;;;;17.30;2.90;;;40.20;23.30;;;;;;5046148;28;20087;-67
2022/07/22 02:57:47;;;;;;;23.88;2.97;;;40.10;24.00;;;;;;5045927;28;20475;-66
2022/07/22 03:00:14;;;;;;;13.73;2.72;;;40.00;23.20;;;;;;5066486;28;20125;-66
2022/07/22 03:02:41;;;;;;;15.60;2.80;;;40.00;23.40;;;;;;5035378;28;20521;-66
2022/07/22 03:05:08;;;;;;;16.55;3.10;;;39.90;23.20;;;;;;5045426;28;20428;-66
2022/07/22 03:07:35;;;;;;;45.97;25.17;;;39.90;23.30;;;;;;5048314;28;20060;-68
2022/07/22 03:10:01;;;;;;;20.15;5.70;;;39.70;23.60;;;;;;5070595;28;20524;-71
2022/07/22 03:12:28;;;;;;;23.95;9.85;;;39.60;23.60;;;;;;5048384;28;20056;-65
2022/07/22 03:14:54;;;;;;;30.02;7.78;;;39.50;23.60;;;;;;5047563;28;20064;-65
2022/07/22 03:17:20;;;;;;;11.73;3.00;;;39.50;23.40;;;;;;5063850;28;20421;-65
2022/07/22 03:19:47;;;;;;;16.90;3.03;;;39.50;23.60;;;;;;5060277;28;20059;-65
2022/07/22 03:22:13;;;;;;;18.20;3.22;;;39.40;23.70;;;;;;5065422;28;20071;-65
2022/07/22 03:24:40;;;;;;;19.20;3.10;;;39.30;23.50;;;;;;5064048;28;20083;-66
2022/07/22 03:27:06;;;;;;;19.08;2.78;;;39.30;23.60;;;;;;5047021;28;20067;-67
2022/07/22 03:29:32;;;;;;;16.60;3.53;;;39.30;23.50;;;;;;5048065;28;20060;-63
2022/07/22 03:31:59;;;;;;;20.95;3.22;;;39.20;23.40;;;;;;5044780;28;20135;-67
2022/07/22 03:34:25;;;;;;;23.08;3.10;;;39.20;23.60;;;;;;5046313;28;20062;-66
2022/07/22 03:36:51;;;;;;;17.30;3.42;;;39.20;24.00;;;;;;5048290;28;20073;-66
2022/07/22 03:39:18;;;;;;;15.60;3.50;;;39.10;23.60;;;;;;5033439;28;20074;-67
2022/07/22 03:41:44;;;;;;;20.23;3.17;;;39.00;23.80;;;;;;5061284;28;20104;-66
2022/07/22 03:44:10;;;;;;;16.27;2.85;;;39.00;23.70;;;;;;5043015;28;20051;-65
2022/07/22 03:46:37;;;;;;;20.00;3.17;;;38.90;23.50;;;;;;5056894;28;20062;-63
2022/07/22 03:49:03;;;;;;;21.92;4.03;;;38.90;23.60;;;;;;5046688;28;20125;-68
2022/07/22 03:51:29;;;;;;;16.95;3.47;;;38.90;23.90;;;;;;5067869;28;20137;-67
2022/07/22 03:53:56;;;;;;;18.50;3.55;;;38.80;23.80;;;;;;5061414;28;20065;-65
2022/07/22 03:56:22;;;;;;;20.90;2.88;;;38.70;24.70;;;;;;5047503;28;20508;-65
2022/07/22 03:58:48;;;;;;;25.38;3.50;;;38.70;24.00;;;;;;5029435;28;20604;-68
2022/07/22 04:01:15;;;;;;;22.40;3.17;;;38.60;23.90;;;;;;5060132;28;20536;-65
2022/07/22 04:03:41;;;;;;;21.77;2.92;;;38.60;24.20;;;;;;5048841;28;20515;-67
2022/07/22 04:06:08;;;;;;;28.15;3.20;;;38.50;24.20;;;;;;5064930;28;20537;-65
2022/07/22 04:08:34;;;;;;;36.35;5.25;;;38.50;24.50;;;;;;5044399;28;20528;-65
2022/07/22 04:11:00;;;;;;;21.13;3.58;;;38.50;23.90;;;;;;5062948;28;20083;-66
2022/07/22 04:13:27;;;;;;;23.80;3.45;;;38.30;24.00;;;;;;5063794;28;20058;-66
2022/07/22 04:15:53;;;;;;;17.38;3.30;;;38.30;24.30;;;;;;5047404;28;20064;-66
2022/07/22 04:18:20;;;;;;;27.98;3.25;;;38.30;23.50;;;;;;5064936;28;20544;-64
2022/07/22 04:20:46;;;;;;;17.40;3.13;;;38.20;23.70;;;;;;5046361;28;20084;-64
2022/07/22 04:23:13;;;;;;;20.35;2.95;;;38.10;23.60;;;;;;5061509;28;20082;-64
2022/07/22 04:25:40;;;;;;;17.30;3.17;;;38.20;23.60;;;;;;5065058;28;20596;-65
2022/07/22 04:28:07;;;;;;;17.75;3.20;;;38.10;23.80;;;;;;5063452;28;20102;-63
2022/07/22 04:30:33;;;;;;;18.40;3.10;;;38.10;23.50;;;;;;5064266;28;20073;-65
2022/07/22 04:32:59;;;;;;;14.70;3.40;;;38.10;23.70;;;;;;5063970;28;20506;-64
2022/07/22 04:35:26;;;;;;;14.98;3.55;;;38.10;23.60;;;;;;5045710;28;20070;-66
2022/07/22 04:37:52;;;;;;;24.02;3.38;;;38.00;23.70;;;;;;5044896;28;20056;-66
2022/07/22 04:40:19;;;;;;;17.25;3.25;;;38.00;23.50;;;;;;5067291;28;20066;-64
2022/07/22 04:42:45;;;;;;;13.50;2.92;;;38.00;23.70;;;;;;5046474;28;20587;-65
2022/07/22 04:45:12;;;;;;;17.95;3.15;;;38.00;23.70;;;;;;5028258;28;20557;-64
2022/07/22 04:47:39;;;;;;;14.43;3.08;;;37.90;23.60;;;;;;5042355;28;21352;-65
2022/07/22 04:50:06;;;;;;;18.67;3.08;;;37.90;23.50;;;;;;5062873;28;20526;-65
2022/07/22 04:52:32;;;;;;;14.93;2.42;;;37.80;23.50;;;;;;5047205;28;20071;-65
2022/07/22 04:54:59;;;;;;;14.77;3.30;;;37.80;23.40;;;;;;5065725;28;20067;-64
2022/07/22 04:57:26;;;;;;;17.10;2.88;;;37.80;23.40;;;;;;5061493;28;20081;-64
2022/07/22 04:59:53;;;;;;;13.00;2.45;;;37.70;23.60;;;;;;5044573;28;20085;-65
2022/07/22 05:02:20;;;;;;;22.92;2.60;;;37.70;23.70;;;;;;5026859;28;20087;-64
2022/07/22 05:04:46;;;;;;;18.83;3.00;;;37.70;23.80;;;;;;5048742;28;20519;-65
2022/07/22 05:07:12;;;;;;;12.13;2.85;;;37.70;23.90;;;;;;5030093;28;20068;-67
2022/07/22 05:09:39;;;;;;;15.50;2.65;;;37.60;24.10;;;;;;5043188;28;20068;-66
2022/07/22 05:12:06;;;;;;;15.13;2.85;;;37.60;23.90;;;;;;5030336;28;20112;-64
2022/07/22 05:14:32;;;;;;;8.05;2.28;;;37.50;24.30;;;;;;5028027;28;20158;-65
2022/07/22 05:16:58;;;;;;;15.90;2.33;;;37.50;24.50;;;;;;5063205;28;20071;-65
2022/07/22 05:19:25;;;;;;;12.70;2.28;;;37.40;23.90;;;;;;5065796;28;20066;-64
2022/07/22 05:21:51;;;;;;;11.95;2.38;;;37.40;23.80;;;;;;5048642;28;20086;-64
2022/07/22 05:24:18;;;;;;;11.65;2.35;;;37.40;24.00;;;;;;5047845;28;20128;-65
2022/07/22 05:26:44;;;;;;;19.77;2.35;;;37.30;23.80;;;;;;5060717;28;20494;-65
2022/07/22 05:29:10;;;;;;;16.00;2.65;;;37.30;23.80;;;;;;5066515;28;20063;-64
2022/07/22 05:31:37;;;;;;;18.23;2.63;;;37.30;24.00;;;;;;5052046;28;20105;-64
2022/07/22 05:34:03;;;;;;;18.17;2.70;;;37.30;23.90;;;;;;5049990;28;20092;-66
2022/07/22 05:36:30;;;;;;;18.10;2.30;;;37.30;23.90;;;;;;5064994;28;20130;-64
2022/07/22 05:38:56;;;;;;;19.45;2.60;;;37.20;24.00;;;;;;5065022;28;20562;-64
2022/07/22 05:41:22;;;;;;;15.93;3.00;;;37.30;23.70;;;;;;5067212;28;20192;-64
2022/07/22 05:43:49;;;;;;;15.18;2.83;;;37.30;23.50;;;;;;5050324;28;20122;-64
2022/07/22 05:46:15;;;;;;;21.73;2.88;;;37.30;23.80;;;;;;5064835;28;20534;-64
2022/07/22 05:48:42;;;;;;;14.88;2.88;;;37.20;23.70;;;;;;5047252;28;20069;-65
2022/07/22 05:51:12;;;;;;;18.08;2.80;;;37.20;24.30;;;;;;5065356;28;20072;-64
2022/07/22 05:53:39;;;;;;;18.73;2.80;;;37.20;23.90;;;;;;5032546;28;20418;-65
2022/07/22 05:56:06;;;;;;;19.63;2.85;;;37.20;24.00;;;;;;5064012;28;21682;-64
2022/07/22 05:58:33;;;;;;;18.83;2.83;;;37.20;23.70;;;;;;5066118;28;20079;-64
2022/07/22 06:00:59;;;;;;;14.55;2.53;;;37.20;23.90;;;;;;5048622;28;20096;-65
2022/07/22 06:03:25;;;;;;;15.35;4.18;;;37.10;23.80;;;;;;5045410;28;20077;-66
2022/07/22 06:05:52;;;;;;;16.70;2.80;;;37.10;24.10;;;;;;5048154;28;20103;-66
2022/07/22 06:08:18;;;;;;;13.95;3.28;;;37.10;24.00;;;;;;5050350;28;20072;-65
2022/07/22 06:10:45;;;;;;;20.83;3.00;;;37.00;23.70;;;;;;5063228;28;20092;-69
2022/07/22 06:13:11;;;;;;;35.38;3.78;;;37.00;24.40;;;;;;5065604;28;20060;-70
2022/07/22 06:15:37;;;;;;;16.35;2.88;;;37.00;24.10;;;;;;5047387;28;20069;-70
2022/07/22 06:18:04;;;;;;;7.63;2.10;;;36.90;23.80;;;;;;5063878;28;20071;-67
2022/07/22 06:20:30;;;;;;;16.40;2.35;;;36.90;24.10;;;;;;5049127;28;20590;-64
2022/07/22 06:22:57;;;;;;;9.20;2.25;;;36.90;24.50;;;;;;5048999;28;20099;-66
2022/07/22 06:25:26;;;;;;;7.30;2.30;;;36.90;24.40;;;;;;5049700;28;20139;-64
2022/07/22 06:27:52;;;;;;;11.30;2.58;;;36.80;24.30;;;;;;5048128;28;20200;-64
2022/07/22 06:30:19;;;;;;;12.43;2.50;;;36.80;24.20;;;;;;5063064;28;20434;-65
2022/07/22 06:32:45;;;;;;;8.82;2.70;;;36.90;24.30;;;;;;5049071;28;20102;-64
2022/07/22 06:35:11;;;;;;;7.93;2.25;;;36.80;23.80;;;;;;5045907;28;20090;-64
2022/07/22 06:37:38;;;;;;;15.82;2.58;;;36.80;24.20;;;;;;5048509;28;20075;-65
2022/07/22 06:40:05;;;;;;;13.50;2.90;;;36.80;24.10;;;;;;5052799;28;20077;-65
2022/07/22 06:42:31;;;;;;;9.32;2.17;;;36.80;24.50;;;;;;5046001;28;20096;-64
2022/07/22 06:44:58;;;;;;;13.05;1.92;;;36.80;24.10;;;;;;5047968;28;20070;-64
2022/07/22 06:47:24;;;;;;;7.30;2.20;;;36.80;23.80;;;;;;5059539;28;20096;-66
2022/07/22 06:49:51;;;;;;;11.38;1.90;;;36.80;23.90;;;;;;5044730;28;20076;-64
2022/07/22 06:52:17;;;;;;;8.73;2.10;;;36.80;23.60;;;;;;5064420;28;20065;-65
2022/07/22 06:54:43;;;;;;;10.00;1.85;;;36.80;24.20;;;;;;5049917;28;20081;-66
2022/07/22 06:57:11;;;;;;;8.80;2.05;;;36.70;24.20;;;;;;5048247;28;20140;-65
2022/07/22 06:59:37;;;;;;;3.08;1.65;;;36.50;23.70;;;;;;5064781;28;20154;-63
2022/07/22 07:02:04;;;;;;;3.72;1.50;;;36.50;24.10;;;;;;5045636;28;20086;-64
2022/07/22 07:04:30;;;;;;;7.07;1.73;;;36.50;23.60;;;;;;5063252;28;20573;-65
2022/07/22 07:06:56;;;;;;;11.05;1.88;;;36.50;23.60;;;;;;5047961;28;20591;-65
2022/07/22 07:09:23;;;;;;;10.15;2.03;;;36.50;23.60;;;;;;5065032;28;20071;-65
2022/07/22 07:11:49;;;;;;;7.05;1.80;;;36.50;23.50;;;;;;5062571;28;20113;-64
2022/07/22 07:14:15;;;;;;;2.83;1.45;;;36.50;23.60;;;;;;5065840;28;20064;-65
2022/07/22 07:16:42;;;;;;;9.73;1.90;;;36.40;23.60;;;;;;5044883;28;20091;-65
2022/07/22 07:19:08;;;;;;;5.70;1.98;;;36.40;23.70;;;;;;5064520;28;20527;-65
2022/07/22 07:21:35;;;;;;;4.82;1.65;;;36.40;24.10;;;;;;5046766;28;20183;-64
2022/07/22 07:24:01;;;;;;;9.98;1.90;;;36.30;24.20;;;;;;5045523;28;20115;-64
2022/07/22 07:26:28;;;;;;;9.85;2.05;;;36.20;24.00;;;;;;5048280;28;20068;-65
2022/07/22 07:28:54;;;;;;;9.55;1.98;;;36.20;24.80;;;;;;5065153;28;20073;-64
2022/07/22 07:31:21;;;;;;;4.40;1.40;;;36.10;24.80;;;;;;5046292;28;20085;-68
2022/07/22 07:33:48;;;;;;;7.30;1.98;;;36.10;24.60;;;;;;5063620;28;20070;-64
2022/07/22 07:36:14;;;;;;;8.80;1.88;;;36.00;25.00;;;;;;5044947;28;20086;-64
2022/07/22 07:38:41;;;;;;;5.72;2.17;;;35.90;25.10;;;;;;5045695;28;20075;-64
2022/07/22 07:41:08;;;;;;;7.45;1.75;;;35.90;24.60;;;;;;5046495;28;20137;-64
2022/07/22 07:43:35;;;;;;;6.13;2.20;;;35.80;25.30;;;;;;5045058;28;20824;-63
2022/07/22 07:46:01;;;;;;;5.00;1.90;;;35.70;25.20;;;;;;5047368;28;20075;-64
2022/07/22 07:48:28;;;;;;;7.05;2.00;;;35.70;25.50;;;;;;5042903;28;20079;-64
2022/07/22 07:50:54;;;;;;;6.28;1.90;;;35.60;25.00;;;;;;5042057;28;20072;-64
2022/07/22 07:53:20;;;;;;;8.43;2.15;;;35.60;25.10;;;;;;5063400;28;20082;-63
2022/07/22 07:55:47;;;;;;;7.63;1.80;;;35.50;25.30;;;;;;5046570;28;20438;-65
2022/07/22 07:58:13;;;;;;;6.15;2.00;;;35.50;25.80;;;;;;5044875;28;20124;-65
2022/07/22 08:00:42;;;;;;;5.50;1.67;;;35.40;25.60;;;;;;5049709;28;20448;-64
2022/07/22 08:03:10;;;;;;;10.55;1.92;;;35.40;25.40;;;;;;5058972;28;20175;-64
2022/07/22 08:05:36;;;;;;;10.43;1.80;;;35.40;25.20;;;;;;5063119;28;20545;-64
2022/07/22 08:08:03;;;;;;;7.53;1.55;;;35.30;25.70;;;;;;5045769;28;20077;-66
2022/07/22 08:10:29;;;;;;;7.40;1.85;;;35.30;26.50;;;;;;5063313;28;21055;-64
2022/07/22 08:12:57;;;;;;;5.00;1.58;;;35.20;26.00;;;;;;5047027;28;20077;-65
2022/07/22 08:15:28;;;;;;;5.97;1.90;;;35.20;26.70;;;;;;5062155;28;20167;-66
2022/07/22 08:17:55;;;;;;;3.88;1.52;;;35.10;26.50;;;;;;5046049;28;20083;-66
2022/07/22 08:20:22;;;;;;;8.63;1.98;;;35.10;27.10;;;;;;5045489;28;20071;-65
2022/07/22 08:22:48;;;;;;;6.03;1.88;;;35.00;26.90;;;;;;5063270;28;20585;-65
2022/07/22 08:25:15;;;;;;;9.35;1.77;;;34.90;27.10;;;;;;5047330;28;20736;-64
2022/07/22 08:27:41;;;;;;;5.72;1.77;;;34.90;26.10;;;;;;5046466;28;20551;-64
2022/07/22 08:30:08;;;;;;;6.47;1.67;;;34.90;25.80;;;;;;5045481;28;20072;-64
2022/07/22 08:32:34;;;;;;;10.73;2.10;;;34.80;25.60;;;;;;5043432;28;20535;-63
2022/07/22 08:35:01;;;;;;;7.43;2.00;;;34.80;26.20;;;;;;5061280;28;20087;-65
2022/07/22 08:37:27;;;;;;;17.88;2.53;;;34.80;26.50;;;;;;5062220;28;20076;-65
2022/07/22 08:39:54;;;;;;;6.15;1.73;;;34.70;26.20;;;;;;5066588;28;20079;-64
2022/07/22 08:42:22;;;;;;;11.52;1.90;;;34.70;26.20;;;;;;5064780;28;20118;-65
2022/07/22 08:44:49;;;;;;;8.00;1.98;;;34.60;26.90;;;;;;5046360;28;20096;-65
2022/07/22 08:47:15;;;;;;;10.98;2.40;;;34.60;27.50;;;;;;5050176;28;20455;-64
2022/07/22 08:49:42;;;;;;;9.00;2.03;;;34.60;27.30;;;;;;5056652;28;20104;-66
2022/07/22 08:52:08;;;;;;;9.38;2.03;;;34.50;27.60;;;;;;5041933;28;20595;-66
2022/07/22 08:54:35;;;;;;;10.82;2.20;;;34.40;27.80;;;;;;5060519;28;20111;-64
2022/07/22 08:57:01;;;;;;;9.50;2.35;;;34.40;28.40;;;;;;5061740;28;20435;-64
2022/07/22 08:59:28;;;;;;;5.05;1.60;;;34.30;29.10;;;;;;5045060;28;20072;-66
2022/07/22 09:02:11;;;;;;;7.80;2.10;;;34.20;28.20;;;;;;5064263;28;20216;-64
2022/07/22 09:05:13;;;;;;;11.45;2.33;;;34.10;28.50;;;;;;5059758;28;20090;-64
2022/07/22 09:07:45;;;;;;;7.53;1.70;;;34.10;27.40;;;;;;4987235;28;20125;-66
2022/07/22 09:10:17;;;;;;;14.00;2.58;;;34.10;27.20;;;;;;4987141;28;20164;-63
2022/07/22 09:13:01;;;;;;;9.65;2.10;;;34.00;27.30;;;;;;4986989;28;20098;-66
2022/07/22 09:15:36;;;;;;;9.00;1.90;;;34.00;27.40;;;;;;4970141;28;20074;-65
2022/07/22 09:18:04;;;;;;;12.80;1.90;;;33.90;27.60;;;;;;4969935;28;20555;-66
2022/07/22 09:20:31;;;;;;;8.93;2.05;;;33.80;27.70;;;;;;4986889;28;20093;-64
2022/07/22 09:22:57;;;;;;;8.38;2.00;;;33.70;28.20;;;;;;4987174;28;20184;-65
2022/07/22 09:25:32;;;;;;;9.32;1.95;;;33.70;29.10;;;;;;4973204;28;20114;-67
2022/07/22 09:28:07;;;;;;;7.93;2.05;;;33.60;29.60;;;;;;4970837;28;20523;-63
2022/07/22 09:30:37;;;;;;;8.30;1.90;;;33.60;29.00;;;;;;4991164;28;20539;-66
2022/07/22 09:33:05;;;;;;;9.32;2.40;;;33.60;29.00;;;;;;4979567;28;20494;-65
2022/07/22 09:35:31;;;;;;;4.20;2.17;;;33.50;29.40;;;;;;4987411;28;20090;-65
2022/07/22 09:38:17;;;;;;;8.85;2.58;;;33.50;28.70;;;;;;4981167;28;20655;-65
2022/07/22 09:40:49;;;;;;;8.80;2.85;;;33.40;28.40;;;;;;4986435;28;20097;-65
2022/07/22 09:43:20;;;;;;;8.85;2.85;;;33.40;28.60;;;;;;5024647;28;20100;-65
2022/07/22 09:46:01;;;;;;;18.88;4.72;;;33.30;29.10;;;;;;5043073;28;20776;-66
2022/07/22 09:48:28;;;;;;;29.77;5.85;;;33.30;30.50;;;;;;5061335;28;20070;-65
2022/07/22 09:50:59;;;;;;;30.10;5.75;;;33.30;30.50;;;;;;5047970;28;20478;-66
2022/07/22 09:53:28;;;;;;;18.10;4.95;;;33.20;29.80;;;;;;5062295;28;20078;-65
2022/07/22 09:55:59;;;;;;;15.63;4.38;;;33.20;30.10;;;;;;5046717;28;20068;-64
2022/07/22 09:58:26;;;;;;;19.70;4.18;;;33.20;30.20;;;;;;5061185;28;20068;-63
2022/07/22 10:00:54;;;;;;;21.90;4.53;;;33.20;30.70;;;;;;5044492;28;20075;-64
2022/07/22 10:03:30;;;;;;;17.65;4.07;;;33.20;30.40;;;;;;5043839;28;20075;-64
2022/07/22 10:05:58;;;;;;;14.13;4.05;;;33.10;30.80;;;;;;5065896;28;20084;-65
2022/07/22 10:08:29;;;;;;;19.80;4.10;;;33.10;31.30;;;;;;5045722;28;20071;-65
2022/07/22 10:11:01;;;;;;;30.88;4.88;;;33.10;32.80;;;;;;5046983;28;20137;-65
2022/07/22 10:13:27;;;;;;;22.23;4.80;;;33.10;33.50;;;;;;5048997;28;20068;-66
2022/07/22 10:15:57;;;;;;;15.27;4.30;;;33.10;33.90;;;;;;5067810;28;20068;-64
2022/07/22 10:18:25;;;;;;;32.85;5.65;;;32.90;35.00;;;;;;5049801;28;20076;-63
2022/07/22 10:21:05;;;;;;;27.77;6.00;;;32.90;36.50;;;;;;5062374;28;20076;-64
2022/07/22 10:23:32;;;;;;;26.05;5.45;;;32.90;36.40;;;;;;5065533;28;20094;-67
2022/07/22 10:26:01;;;;;;;30.73;5.50;;;32.80;36.40;;;;;;5065443;28;20138;-65
2022/07/22 10:28:28;;;;;;;28.60;6.07;;;32.80;37.20;;;;;;5062294;28;20147;-65
2022/07/22 10:31:17;;;;;;;45.20;7.43;;;32.80;37.80;;;;;;5043800;28;20076;-64
2022/07/22 10:33:51;;;;;;;24.38;4.90;;;32.80;38.40;;;;;;5043190;28;20179;-66
2022/07/22 10:36:33;;;;;;;39.45;5.90;;;32.80;39.80;;;;;;5040225;28;20088;-64
2022/07/22 10:39:14;;;;;;;30.25;6.40;;;32.80;40.80;;;;;;5044442;28;20553;-67
2022/07/22 10:41:43;;;;;;;26.27;6.30;;;32.70;40.30;;;;;;5060487;28;20083;-64
2022/07/22 10:44:10;;;;;;;36.42;6.05;;;32.60;40.20;;;;;;5046974;28;20067;-66
2022/07/22 10:46:54;;;;;;;30.80;5.68;;;32.60;43.10;;;;;;5052304;28;20560;-65
2022/07/22 10:49:24;;;;;;;33.45;6.10;;;32.60;45.60;;;;;;5069577;28;20074;-64
2022/07/22 10:52:08;;;;;;;27.40;5.22;;;32.50;46.20;;;;;;5067699;28;20075;-64
2022/07/22 10:55:13;;;;;;;26.90;5.53;;;32.50;46.70;;;;;;5066172;28;20132;-64
2022/07/22 10:57:39;;;;;;;27.27;5.75;;;32.50;47.50;;;;;;5064397;28;20551;-64
2022/07/22 11:00:07;;;;;;;30.67;5.43;;;32.50;47.20;;;;;;5065821;28;20122;-64
2022/07/22 11:02:36;;;;;;;26.85;5.22;;;32.40;46.50;;;;;;5064419;28;20108;-64
2022/07/22 11:05:04;;;;;;;35.30;6.05;;;32.40;47.30;;;;;;5047114;28;20068;-63
2022/07/22 11:07:31;;;;;;;39.05;6.28;;;32.40;47.70;;;;;;5046499;28;20159;-64
2022/07/22 11:10:18;;;;;;;38.60;6.40;;;32.30;48.10;;;;;;5050433;28;20078;-64
2022/07/22 11:12:46;;;;;;;34.05;6.22;;;32.30;48.50;;;;;;5064408;28;20087;-64
2022/07/22 11:15:13;;;;;;;20.48;5.18;;;32.20;50.10;;;;;;5064317;28;20068;-64
2022/07/22 11:17:41;;;;;;;25.50;5.45;;;32.20;52.20;;;;;;5045760;28;20456;-65
2022/07/22 11:20:10;;;;;;;34.75;6.07;;;32.20;56.30;;;;;;5047159;28;20079;-65
2022/07/22 11:22:36;;;;;;;30.83;7.13;;;32.20;58.00;;;;;;5045180;28;20178;-64
2022/07/22 11:25:10;;;;;;;29.85;5.95;;;32.20;57.80;;;;;;5064077;28;20161;-66
2022/07/22 11:27:37;;;;;;;29.38;5.72;;;32.20;59.10;;;;;;5046880;28;20068;-66
2022/07/22 11:30:06;;;;;;;23.60;5.03;;;32.20;60.70;;;;;;5044332;28;20107;-64
2022/07/22 11:32:33;;;;;;;16.23;4.72;;;32.20;62.60;;;;;;5051221;28;20133;-64
2022/07/22 11:35:00;;;;;;;29.23;4.60;;;32.20;63.10;;;;;;5046958;28;20161;-64
2022/07/22 11:37:27;;;;;;;24.95;4.75;;;32.20;64.70;;;;;;5046577;28;20132;-64
2022/07/22 11:40:03;;;;;;;17.67;4.20;;;32.20;66.20;;;;;;5044522;28;20076;-65
2022/07/22 11:42:29;;;;;;;13.57;5.07;;;32.20;67.20;;;;;;5051358;28;20596;-66
2022/07/22 11:44:56;;;;;;;21.50;5.32;;;32.20;67.90;;;;;;5063803;28;20072;-64
2022/07/22 11:47:22;;;;;;;19.85;4.90;;;32.20;68.80;;;;;;5064063;28;20064;-64
2022/07/22 11:49:49;;;;;;;16.67;4.70;;;32.20;69.40;;;;;;5062916;28;20064;-64
2022/07/22 11:52:15;;;;;;;23.42;4.57;;;32.20;69.90;;;;;;5064395;28;20075;-64
2022/07/22 11:54:43;;;;;;;19.17;4.60;;;32.20;70.30;;;;;;5043825;28;20069;-64
2022/07/22 11:57:13;;;;;;;20.17;4.32;;;32.20;70.60;;;;;;5030058;28;20522;-64
2022/07/22 11:59:39;;;;;;;16.70;4.10;;;32.10;71.40;;;;;;5046271;28;20089;-64
2022/07/22 12:02:09;;;;;;;21.90;5.13;;;32.10;71.90;;;;;;5068259;28;20091;-64
2022/07/22 12:04:36;;;;;;;23.27;5.25;;;32.10;72.20;;;;;;5027674;28;20092;-64
2022/07/22 12:07:04;;;;;;;23.30;4.78;;;32.10;72.20;;;;;;5062829;28;20067;-63
2022/07/22 12:09:34;;;;;;;153.80;10.95;;;32.10;72.70;;;;;;5046508;28;20430;-64
2022/07/22 12:12:01;;;;;;;29.42;4.90;;;32.10;73.30;;;;;;5062609;28;20094;-64
2022/07/22 12:14:30;;;;;;;21.40;4.95;;;32.00;74.20;;;;;;5045233;28;20076;-63
2022/07/22 12:17:09;;;;;;;20.60;4.93;;;32.00;74.60;;;;;;5044283;28;20096;-64
2022/07/22 12:19:38;;;;;;;23.27;4.80;;;32.00;74.00;;;;;;5045813;28;20080;-64
2022/07/22 12:22:18;;;;;;;13.68;3.65;;;32.10;73.80;;;;;;5061366;28;20084;-65
2022/07/22 12:24:57;;;;;;;22.17;5.20;;;32.10;73.70;;;;;;5063050;28;20103;-64
2022/07/22 12:27:23;;;;;;;22.48;4.00;;;32.10;73.90;;;;;;5046148;28;20072;-64
2022/07/22 12:29:50;;;;;;;26.25;4.28;;;32.00;71.90;;;;;;5044880;28;20104;-63
2022/07/22 12:32:23;;;;;;;15.57;3.80;;;32.00;70.70;;;;;;5048099;28;20080;-64
2022/07/22 12:34:57;;;;;;;18.48;4.10;;;32.00;68.70;;;;;;5059636;28;20072;-64
2022/07/22 12:37:30;;;;;;;21.33;4.32;;;32.00;66.90;;;;;;5057819;28;20174;-64
2022/07/22 12:40:02;;;;;;;20.83;4.30;;;32.00;66.00;;;;;;5035211;28;20860;-63
2022/07/22 12:42:31;;;;;;;17.73;4.13;;;32.00;65.20;;;;;;5043291;28;20095;-63